createdAt,value
2018-12-19T00:00:56.597Z,75.62
2018-12-19T00:03:24.096Z,74.99
2018-12-19T00:05:51.633Z,75.90
2018-12-19T00:08:19.155Z,75.61
2018-12-19T00:10:46.781Z,75.59
2018-12-19T00:13:16.215Z,74.18
2018-12-19T00:15:43.682Z,75.36
2018-12-19T00:18:11.098Z,74.31
2018-12-19T00:20:38.565Z,74.35
2018-12-19T00:23:05.982Z,75.05
2018-12-19T00:25:33.537Z,75.20
2018-12-19T00:28:00.971Z,74.52
2018-12-19T00:30:28.406Z,74.52
2018-12-19T00:32:55.889Z,74.94
2018-12-19T00:35:25.179Z,74.32
2018-12-19T00:37:52.696Z,74.58
2018-12-19T00:40:20.171Z,73.40
2018-12-19T00:42:47.623Z,73.67
2018-12-19T00:45:15.073Z,72.83
2018-12-19T00:47:42.567Z,73.32
2018-12-19T00:50:10.122Z,72.81
2018-12-19T00:52:37.674Z,73.52
2018-12-19T00:55:05.183Z,72.56
2018-12-19T00:57:32.655Z,72.27
2018-12-19T01:00:00.092Z,73.05
2018-12-19T01:02:27.698Z,71.83
2018-12-19T01:04:55.297Z,71.70
2018-12-19T01:07:22.764Z,72.64
2018-12-19T01:09:50.224Z,71.89
2018-12-19T01:12:17.681Z,72.57
2018-12-19T01:14:45.142Z,72.14
2018-12-19T01:17:12.658Z,73.30
2018-12-19T01:19:40.149Z,71.97
2018-12-19T01:22:07.601Z,72.86
2018-12-19T01:24:35.087Z,72.22
2018-12-19T01:27:02.727Z,72.63
2018-12-19T01:29:30.221Z,72.07
2018-12-19T01:31:57.720Z,71.72
2018-12-19T01:34:25.207Z,72.41
2018-12-19T01:36:52.714Z,72.38
2018-12-19T01:39:22.622Z,72.11
2018-12-19T01:41:49.719Z,72.15
2018-12-19T01:44:17.198Z,73.01
2018-12-19T01:46:44.754Z,72.16
2018-12-19T01:49:12.206Z,72.36
2018-12-19T01:51:39.768Z,72.95
2018-12-19T01:54:07.200Z,72.75
2018-12-19T01:56:34.654Z,72.07
2018-12-19T01:59:02.130Z,72.21
2018-12-19T02:01:29.619Z,72.64
2018-12-19T02:04:00.363Z,71.79
2018-12-19T02:06:27.836Z,71.49
2018-12-19T02:08:55.290Z,71.98
2018-12-19T02:11:22.735Z,71.07
2018-12-19T02:13:50.162Z,71.25
2018-12-19T02:16:17.620Z,71.42
2018-12-19T02:18:45.111Z,71.58
2018-12-19T02:21:12.620Z,71.73
2018-12-19T02:23:40.145Z,71.00
2018-12-19T02:26:07.569Z,70.56
2018-12-19T02:28:35.011Z,70.53
2018-12-19T02:31:04.482Z,70.04
2018-12-19T02:33:32.046Z,69.53
2018-12-19T02:35:59.504Z,69.31
2018-12-19T02:38:26.961Z,69.58
2018-12-19T02:40:54.504Z,69.68
2018-12-19T02:43:21.947Z,70.13
2018-12-19T02:45:49.472Z,69.85
2018-12-19T02:48:16.907Z,69.89
2018-12-19T02:50:44.405Z,70.14
2018-12-19T02:53:11.854Z,71.00
2018-12-19T02:55:39.299Z,69.90
2018-12-19T02:58:06.759Z,70.44
2018-12-19T03:00:34.198Z,70.78
2018-12-19T03:03:01.711Z,70.68
2018-12-19T03:05:29.168Z,70.01
2018-12-19T03:07:56.606Z,70.35
2018-12-19T03:10:24.076Z,69.63
2018-12-19T03:12:51.538Z,69.68
2018-12-19T03:15:19.019Z,70.65
2018-12-19T03:17:46.671Z,70.63
2018-12-19T03:20:14.190Z,70.38
2018-12-19T03:22:41.686Z,69.36
2018-12-19T03:25:09.172Z,70.00
2018-12-19T03:27:36.632Z,69.59
2018-12-19T03:30:05.109Z,69.43
2018-12-19T03:35:06.427Z,68.48
2018-12-19T03:37:33.923Z,68.99
2018-12-19T03:40:01.368Z,69.08
2018-12-19T03:42:28.829Z,69.41
2018-12-19T03:44:56.334Z,69.34
2018-12-19T03:47:23.785Z,69.31
2018-12-19T03:49:51.298Z,68.63
2018-12-19T03:52:18.770Z,68.32
2018-12-19T03:54:46.412Z,67.84
2018-12-19T03:57:14.217Z,68.44
2018-12-19T03:59:41.670Z,68.78
2018-12-19T04:02:09.241Z,69.02
2018-12-19T04:04:36.667Z,67.29
2018-12-19T04:07:04.145Z,68.56
2018-12-19T04:09:31.605Z,68.65
2018-12-19T04:11:59.120Z,67.59
2018-12-19T04:14:26.594Z,67.65
2018-12-19T04:16:54.032Z,67.91
2018-12-19T04:19:21.498Z,67.24
2018-12-19T04:21:48.929Z,67.27
2018-12-19T04:24:16.429Z,67.39
2018-12-19T04:26:43.958Z,67.19
2018-12-19T04:29:11.406Z,67.49
2018-12-19T04:31:38.958Z,66.68
2018-12-19T04:34:06.391Z,66.43
2018-12-19T04:36:34.904Z,66.60
2018-12-19T04:39:02.436Z,66.07
2018-12-19T04:41:29.917Z,65.28
2018-12-19T04:43:57.606Z,65.42
2018-12-19T04:46:25.111Z,65.66
2018-12-19T04:48:52.571Z,66.28
2018-12-19T04:51:20.032Z,65.43
2018-12-19T04:53:47.515Z,65.37
2018-12-19T04:56:15.022Z,65.87
2018-12-19T04:58:42.503Z,65.98
2018-12-19T05:01:10.024Z,66.09
2018-12-19T05:03:39.036Z,65.95
2018-12-19T05:06:06.532Z,66.47
2018-12-19T05:08:33.996Z,65.09
2018-12-19T05:11:01.525Z,66.39
2018-12-19T05:13:28.988Z,66.12
2018-12-19T05:15:56.429Z,66.53
2018-12-19T05:18:23.882Z,67.39
2018-12-19T05:20:51.385Z,66.63
2018-12-19T05:23:18.851Z,67.10
2018-12-19T05:25:46.329Z,67.78
2018-12-19T05:28:14.531Z,67.95
2018-12-19T05:30:42.288Z,67.19
2018-12-19T05:33:09.755Z,67.15
2018-12-19T05:35:37.383Z,66.44
2018-12-19T05:38:04.830Z,67.35
2018-12-19T05:40:32.320Z,66.93
2018-12-19T05:43:00.112Z,67.35
2018-12-19T05:45:27.557Z,67.06
2018-12-19T05:47:55.051Z,65.95
2018-12-19T05:50:22.875Z,66.41
2018-12-19T05:52:51.394Z,65.83
2018-12-19T05:55:18.931Z,65.38
2018-12-19T05:57:46.447Z,66.30
2018-12-19T06:00:14.312Z,66.09
2018-12-19T06:02:41.855Z,65.18
2018-12-19T06:05:10.289Z,64.93
2018-12-19T06:07:37.726Z,65.31
2018-12-19T06:10:05.498Z,65.89
2018-12-19T06:12:32.947Z,65.20
2018-12-19T06:15:00.401Z,66.21
2018-12-19T06:17:27.844Z,65.31
2018-12-19T06:19:55.294Z,65.67
2018-12-19T06:22:22.778Z,65.00
2018-12-19T06:24:50.236Z,66.74
2018-12-19T06:27:17.708Z,65.96
2018-12-19T06:29:46.836Z,65.68
2018-12-19T06:32:14.276Z,66.34
2018-12-19T06:34:41.923Z,66.22
2018-12-19T06:37:09.376Z,65.38
2018-12-19T06:39:36.879Z,65.50
2018-12-19T06:42:04.349Z,65.71
2018-12-19T06:44:31.850Z,66.00
2018-12-19T06:46:59.345Z,65.23
2018-12-19T06:49:26.792Z,65.47
2018-12-19T06:51:54.312Z,65.46
2018-12-19T06:54:21.872Z,64.26
2018-12-19T06:56:49.405Z,64.28
2018-12-19T06:59:16.873Z,64.55
2018-12-19T07:01:44.349Z,63.48
2018-12-19T07:04:11.970Z,63.75
2018-12-19T07:06:39.439Z,63.85
2018-12-19T07:09:07.212Z,64.29
2018-12-19T07:11:34.684Z,64.24
2018-12-19T07:14:02.186Z,64.89
2018-12-19T07:16:29.858Z,65.21
2018-12-19T07:18:57.448Z,64.71
2018-12-19T07:21:25.983Z,65.02
2018-12-19T07:23:53.719Z,64.52
2018-12-19T07:26:21.166Z,65.71
2018-12-19T07:28:48.695Z,65.73
2018-12-19T07:31:16.136Z,66.55
2018-12-19T07:33:43.695Z,66.35
2018-12-19T07:36:11.186Z,66.03
2018-12-19T07:38:38.729Z,66.83
2018-12-19T07:41:07.966Z,66.99
2018-12-19T07:43:35.480Z,66.33
2018-12-19T07:46:03.042Z,67.91
2018-12-19T07:48:30.943Z,67.02
2018-12-19T07:50:58.725Z,68.12
2018-12-19T07:53:26.191Z,68.61
2018-12-19T07:55:54.051Z,67.73
2018-12-19T07:58:21.531Z,67.87
2018-12-19T08:00:49.042Z,68.96
2018-12-19T08:03:16.548Z,69.24
2018-12-19T08:05:44.188Z,68.56
2018-12-19T08:08:11.619Z,69.64
2018-12-19T08:10:39.114Z,68.92
2018-12-19T08:13:06.679Z,68.40
2018-12-19T08:15:34.328Z,69.24
2018-12-19T08:18:01.826Z,68.55
2018-12-19T08:20:29.364Z,68.61
2018-12-19T08:22:56.800Z,69.15
2018-12-19T08:25:24.273Z,68.72
2018-12-19T08:27:51.763Z,69.09
2018-12-19T08:30:19.245Z,68.40
2018-12-19T08:32:46.714Z,69.56
2018-12-19T08:35:15.157Z,69.00
2018-12-19T08:37:42.894Z,69.28
2018-12-19T08:40:10.397Z,69.18
2018-12-19T08:42:38.046Z,69.52
2018-12-19T08:45:05.731Z,70.63
2018-12-19T08:47:33.432Z,70.18
2018-12-19T08:50:00.950Z,70.04
2018-12-19T08:52:28.484Z,69.59
2018-12-19T08:54:55.974Z,69.37
2018-12-19T08:57:23.423Z,68.56
2018-12-19T08:59:50.919Z,69.21
2018-12-19T09:02:18.371Z,69.14
2018-12-19T09:04:45.983Z,68.97
2018-12-19T09:07:13.564Z,68.52
2018-12-19T09:09:41.046Z,68.65
2018-12-19T09:12:08.572Z,68.45
2018-12-19T09:14:36.072Z,68.59
2018-12-19T09:17:03.733Z,68.37
2018-12-19T09:19:31.388Z,67.90
2018-12-19T09:21:59.262Z,68.26
2018-12-19T09:24:26.736Z,68.88
2018-12-19T09:26:54.249Z,69.57
2018-12-19T09:29:21.713Z,68.86
2018-12-19T09:31:49.355Z,69.19
2018-12-19T09:34:16.945Z,69.78
2018-12-19T09:36:44.409Z,70.64
2018-12-19T09:39:12.001Z,69.60
2018-12-19T09:41:39.611Z,69.18
2018-12-19T09:44:08.617Z,69.00
2018-12-19T09:46:36.253Z,70.10
2018-12-19T09:49:03.704Z,70.29
2018-12-19T09:51:31.190Z,69.32
2018-12-19T09:53:58.748Z,69.24
2018-12-19T09:56:26.378Z,68.06
2018-12-19T09:58:54.079Z,68.07
2018-12-19T10:01:21.562Z,68.18
2018-12-19T10:03:49.187Z,67.48
2018-12-19T10:06:16.625Z,67.94
2018-12-19T10:08:44.173Z,67.58
2018-12-19T10:11:11.664Z,68.42
2018-12-19T10:13:39.222Z,67.25
2018-12-19T10:16:07.263Z,67.93
2018-12-19T10:18:34.758Z,68.69
2018-12-19T10:21:02.222Z,68.51
2018-12-19T10:23:30.066Z,68.24
2018-12-19T10:26:17.215Z,68.73
2018-12-19T10:28:44.709Z,68.95
2018-12-19T10:31:12.194Z,69.41
2018-12-19T10:33:39.712Z,69.42
2018-12-19T10:36:07.135Z,69.78
2018-12-19T10:38:34.657Z,69.58
2018-12-19T10:41:02.123Z,69.63
2018-12-19T10:43:29.641Z,69.74
2018-12-19T10:45:57.197Z,69.57
2018-12-19T10:48:24.657Z,69.82
2018-12-19T10:50:52.379Z,69.30
2018-12-19T10:53:19.931Z,69.71
2018-12-19T10:55:47.474Z,69.37
2018-12-19T10:58:14.975Z,69.42
2018-12-19T11:00:49.456Z,69.42
2018-12-19T11:03:16.922Z,70.18
2018-12-19T11:05:44.454Z,70.13
2018-12-19T11:08:11.890Z,70.34
2018-12-19T11:10:39.370Z,69.96
2018-12-19T11:13:06.830Z,70.28
2018-12-19T11:15:34.396Z,69.76
2018-12-19T11:18:01.964Z,70.25
2018-12-19T11:20:29.559Z,70.31
2018-12-19T11:22:57.006Z,70.48
2018-12-19T11:25:25.418Z,70.22
2018-12-19T11:27:53.062Z,69.83
2018-12-19T11:30:20.586Z,70.05
2018-12-19T11:32:48.705Z,69.61
2018-12-19T11:35:16.173Z,69.69
2018-12-19T11:37:43.652Z,69.23
2018-12-19T11:40:11.276Z,69.41
2018-12-19T11:42:38.809Z,69.52
2018-12-19T11:45:06.341Z,69.01
2018-12-19T11:47:33.889Z,69.04
2018-12-19T11:50:01.405Z,69.13
2018-12-19T11:52:28.906Z,69.03
2018-12-19T11:54:56.354Z,69.20
2018-12-19T11:57:24.184Z,68.55
2018-12-19T11:59:51.660Z,68.90
2018-12-19T12:02:19.118Z,68.98
2018-12-19T12:04:46.632Z,68.82
2018-12-19T12:07:14.512Z,68.85
2018-12-19T12:09:42.035Z,68.77
2018-12-19T12:12:09.719Z,69.41
2018-12-19T12:14:37.205Z,69.14
2018-12-19T12:17:05.025Z,68.96
2018-12-19T12:19:33.021Z,68.72
2018-12-19T12:22:00.504Z,68.65
2018-12-19T12:24:28.069Z,69.22
2018-12-19T12:26:55.578Z,69.02
2018-12-19T12:29:23.116Z,69.24
2018-12-19T12:31:50.612Z,69.44
2018-12-19T12:34:18.138Z,68.98
2018-12-19T12:36:45.829Z,69.06
2018-12-19T12:39:13.304Z,71.54
2018-12-19T12:41:40.764Z,68.88
2018-12-19T12:44:08.258Z,69.01
2018-12-19T12:46:35.805Z,69.14
2018-12-19T12:49:03.279Z,68.90
2018-12-19T12:51:30.751Z,69.04
2018-12-19T12:53:58.218Z,69.15
2018-12-19T12:56:25.672Z,69.16
2018-12-19T12:58:53.928Z,69.61
2018-12-19T13:01:21.450Z,69.54
2018-12-19T13:03:49.006Z,69.76
2018-12-19T13:06:16.470Z,69.74
2018-12-19T13:08:44.013Z,69.91
2018-12-19T13:11:11.560Z,70.16
2018-12-19T13:13:39.067Z,70.41
2018-12-19T13:16:06.531Z,70.06
2018-12-19T13:18:34.335Z,70.23
2018-12-19T13:21:01.809Z,70.42
2018-12-19T13:23:29.344Z,70.44
2018-12-19T13:25:56.998Z,70.12
2018-12-19T13:28:24.560Z,69.91
2018-12-19T13:30:52.107Z,69.71
2018-12-19T13:33:20.047Z,70.51
2018-12-19T13:35:47.755Z,70.33
2018-12-19T13:38:15.243Z,70.42
2018-12-19T13:40:42.760Z,70.37
2018-12-19T13:43:10.217Z,70.38
2018-12-19T13:45:37.714Z,70.63
2018-12-19T13:48:05.243Z,70.55
2018-12-19T13:50:32.758Z,70.89
2018-12-19T13:53:00.261Z,70.46
2018-12-19T13:55:27.755Z,70.79
2018-12-19T13:57:55.227Z,70.48
2018-12-19T14:00:22.804Z,70.73
2018-12-19T14:02:50.270Z,70.22
2018-12-19T14:05:17.760Z,70.23
2018-12-19T14:07:45.305Z,71.17
2018-12-19T14:10:12.747Z,71.12
2018-12-19T14:12:40.222Z,70.69
2018-12-19T14:15:08.487Z,70.92
2018-12-19T14:17:36.161Z,70.70
2018-12-19T14:20:05.559Z,71.06
2018-12-19T14:22:33.123Z,70.72
2018-12-19T14:25:00.677Z,70.79
2018-12-19T14:27:28.187Z,71.07
2018-12-19T14:29:55.648Z,71.70
2018-12-19T14:32:23.146Z,72.15
2018-12-19T14:34:50.608Z,72.03
2018-12-19T14:37:18.092Z,72.33
2018-12-19T14:39:45.571Z,71.40
2018-12-19T14:42:18.898Z,71.40
2018-12-19T14:44:42.707Z,71.53
2018-12-19T14:47:10.262Z,71.74
2018-12-19T14:49:37.844Z,71.55
2018-12-19T14:52:05.866Z,71.69
2018-12-19T14:54:33.392Z,72.44
2018-12-19T14:57:00.826Z,72.24
2018-12-19T14:59:28.322Z,72.23
2018-12-19T15:01:55.763Z,72.32
2018-12-19T15:04:23.269Z,72.52
2018-12-19T15:06:50.763Z,72.73
2018-12-19T15:09:18.605Z,72.35
2018-12-19T15:11:46.122Z,72.59
2018-12-19T15:14:14.523Z,72.60
2018-12-19T15:16:42.257Z,73.06
2018-12-19T15:19:11.073Z,73.02
2018-12-19T15:21:38.796Z,72.41
2018-12-19T15:24:06.323Z,72.21
2018-12-19T15:26:33.806Z,72.50
2018-12-19T15:29:01.252Z,72.54
2018-12-19T15:31:28.704Z,72.42
2018-12-19T15:33:56.159Z,72.36
2018-12-19T15:36:23.934Z,72.98
2018-12-19T15:38:51.409Z,72.58
2018-12-19T15:41:18.899Z,72.60
2018-12-19T15:43:46.500Z,72.74
2018-12-19T15:46:14.169Z,72.73
2018-12-19T15:48:41.673Z,72.26
2018-12-19T15:51:09.534Z,73.00
2018-12-19T15:53:36.988Z,72.68
2018-12-19T15:56:04.508Z,72.63
2018-12-19T15:58:32.670Z,72.60
2018-12-19T16:01:00.147Z,72.58
2018-12-19T16:03:27.647Z,72.68
2018-12-19T16:05:55.149Z,72.75
2018-12-19T16:08:22.729Z,72.78
2018-12-19T16:10:50.318Z,72.75
2018-12-19T16:13:17.813Z,72.67
2018-12-19T16:15:45.338Z,73.04
2018-12-19T16:18:14.312Z,72.57
2018-12-19T16:20:41.789Z,72.77
2018-12-19T16:23:09.226Z,73.37
2018-12-19T16:25:36.756Z,73.15
2018-12-19T16:28:04.313Z,73.01
2018-12-19T16:30:31.787Z,73.23
2018-12-19T16:32:59.295Z,73.39
2018-12-19T16:35:26.847Z,73.38
2018-12-19T16:37:54.581Z,73.38
2018-12-19T16:40:22.167Z,73.41
2018-12-19T16:42:49.810Z,73.72
2018-12-19T16:45:17.335Z,73.61
2018-12-19T16:47:44.800Z,73.71
2018-12-19T16:50:12.386Z,74.13
2018-12-19T16:52:40.369Z,74.61
2018-12-19T16:55:07.913Z,74.55
2018-12-19T16:57:35.563Z,75.20
2018-12-19T17:00:04.330Z,75.80
2018-12-19T17:02:31.976Z,76.31
2018-12-19T17:04:59.452Z,75.89
2018-12-19T17:07:26.917Z,76.46
2018-12-19T17:09:54.434Z,75.88
2018-12-19T17:12:21.908Z,75.60
2018-12-19T17:14:50.003Z,76.12
2018-12-19T17:17:17.485Z,76.14
2018-12-19T17:19:45.070Z,75.28
2018-12-19T17:22:12.636Z,75.74
2018-12-19T17:24:42.613Z,76.34
2018-12-19T17:27:10.269Z,75.41
2018-12-19T17:29:37.856Z,75.47
2018-12-19T17:32:05.360Z,75.20
2018-12-19T17:34:33.781Z,76.42
2018-12-19T17:37:01.313Z,75.40
2018-12-19T17:39:29.279Z,74.99
2018-12-19T17:41:56.754Z,75.12
2018-12-19T17:44:24.215Z,75.18
2018-12-19T17:46:51.825Z,74.72
2018-12-19T17:49:19.295Z,75.19
2018-12-19T17:51:46.792Z,75.44
2018-12-19T17:54:15.374Z,75.59
2018-12-19T17:56:43.844Z,75.28
2018-12-19T17:59:11.340Z,75.50
2018-12-19T18:01:38.895Z,75.48
2018-12-19T18:04:06.428Z,75.16
2018-12-19T18:06:33.937Z,75.56
2018-12-19T18:09:01.412Z,75.21
2018-12-19T18:11:29.435Z,75.62
2018-12-19T18:16:29.006Z,75.89
2018-12-19T18:18:56.481Z,75.43
2018-12-19T18:21:24.395Z,76.87
2018-12-19T18:23:51.921Z,77.08
2018-12-19T18:26:20.297Z,76.48
2018-12-19T18:28:47.916Z,78.18
2018-12-19T18:31:15.581Z,77.68
2018-12-19T18:33:43.122Z,77.73
2018-12-19T18:36:10.647Z,77.99
2018-12-19T18:38:38.195Z,78.28
2018-12-19T18:41:05.683Z,77.54
2018-12-19T18:43:34.274Z,77.69
2018-12-19T18:46:01.770Z,78.11
2018-12-19T18:48:29.369Z,77.72
2018-12-19T18:50:56.863Z,77.11
2018-12-19T18:53:24.549Z,77.49
2018-12-19T18:55:52.954Z,77.85
2018-12-19T18:58:20.495Z,77.86
2018-12-19T19:00:47.954Z,77.30
2018-12-19T19:03:15.616Z,77.39
2018-12-19T19:05:43.146Z,77.49
2018-12-19T19:08:10.658Z,77.30
2018-12-19T19:10:39.709Z,77.47
2018-12-19T19:13:07.197Z,77.22
2018-12-19T19:15:34.648Z,77.43
2018-12-19T19:18:02.180Z,77.64
2018-12-19T19:20:29.641Z,77.14
2018-12-19T19:22:57.374Z,77.24
2018-12-19T19:25:24.921Z,77.71
2018-12-19T19:27:52.488Z,77.21
2018-12-19T19:30:20.173Z,77.33
2018-12-19T19:32:47.781Z,77.11
2018-12-19T19:35:15.523Z,77.86
2018-12-19T19:37:43.036Z,77.63
2018-12-19T19:40:11.026Z,76.79
2018-12-19T19:42:38.757Z,77.20
2018-12-19T19:45:06.739Z,77.31
2018-12-19T19:47:35.297Z,77.16
2018-12-19T19:50:03.205Z,76.63
2018-12-19T19:52:30.767Z,77.14
2018-12-19T19:54:59.176Z,77.44
2018-12-19T19:57:26.690Z,77.11
2018-12-19T19:59:54.203Z,76.67
2018-12-19T20:02:21.922Z,76.84
2018-12-19T20:04:51.112Z,77.08
2018-12-19T20:07:18.663Z,77.36
2018-12-19T20:09:46.260Z,77.54
2018-12-19T20:12:15.021Z,76.89
2018-12-19T20:14:42.628Z,77.44
2018-12-19T20:17:12.102Z,77.26
2018-12-19T20:19:39.634Z,77.68
2018-12-19T20:22:07.123Z,77.83
2018-12-19T20:24:35.379Z,78.16
2018-12-19T20:27:02.906Z,77.89
2018-12-19T20:29:31.799Z,78.15
2018-12-19T20:31:59.355Z,77.57
2018-12-19T20:34:26.902Z,78.79
2018-12-19T20:36:55.122Z,78.76
2018-12-19T20:39:23.558Z,78.38
2018-12-19T20:41:51.049Z,77.99
2018-12-19T20:44:18.603Z,78.50
2018-12-19T20:46:46.109Z,78.31
2018-12-19T20:49:13.610Z,78.42
2018-12-19T20:51:41.073Z,78.54
2018-12-19T20:54:08.589Z,78.12
2018-12-19T20:56:37.452Z,78.30
2018-12-19T20:59:05.124Z,78.78
2018-12-19T21:01:32.661Z,78.60
2018-12-19T21:04:00.345Z,78.62
2018-12-19T21:06:27.969Z,77.82
2018-12-19T21:08:55.745Z,78.15
2018-12-19T21:11:23.369Z,78.52
2018-12-19T21:13:51.030Z,78.07
2018-12-19T21:16:20.707Z,77.54
2018-12-19T21:18:50.259Z,78.47
2018-12-19T21:21:18.120Z,78.09
2018-12-19T21:23:45.587Z,78.87
2018-12-19T21:26:13.345Z,79.32
2018-12-19T21:28:40.809Z,78.73
2018-12-19T21:31:08.535Z,78.67
2018-12-19T21:33:36.196Z,78.32
2018-12-19T21:36:05.217Z,78.58
2018-12-19T21:38:32.784Z,78.34
2018-12-19T21:41:00.455Z,78.92
2018-12-19T21:43:28.165Z,78.80
2018-12-19T21:45:55.849Z,79.13
2018-12-19T21:48:23.451Z,78.37
2018-12-19T21:50:51.039Z,78.62
2018-12-19T21:53:19.148Z,78.16
2018-12-19T21:55:46.931Z,78.47
2018-12-19T21:58:14.784Z,78.77
2018-12-19T22:00:42.353Z,77.95
2018-12-19T22:03:09.962Z,77.87
2018-12-19T22:05:37.930Z,78.59
2018-12-19T22:08:05.649Z,79.21
2018-12-19T22:10:33.163Z,78.58
2018-12-19T22:13:00.779Z,78.75
2018-12-19T22:15:28.371Z,78.19
2018-12-19T22:18:01.543Z,78.52
2018-12-19T22:20:29.095Z,78.21
2018-12-19T22:22:56.718Z,78.44
2018-12-19T22:25:25.202Z,78.22
2018-12-19T22:27:53.613Z,78.19
2018-12-19T22:30:21.220Z,77.81
2018-12-19T22:32:48.707Z,78.40
2018-12-19T22:35:16.323Z,78.43
2018-12-19T22:37:43.920Z,78.58
2018-12-19T22:40:11.474Z,78.48
2018-12-19T22:42:39.120Z,78.05
2018-12-19T22:45:06.845Z,78.42
2018-12-19T22:47:34.360Z,78.40
2018-12-19T22:50:01.992Z,77.65
2018-12-19T22:52:29.610Z,78.21
2018-12-19T22:54:57.096Z,77.93
2018-12-19T22:57:24.756Z,78.33
2018-12-19T22:59:52.317Z,78.32
2018-12-19T23:02:25.445Z,78.13
2018-12-19T23:04:53.143Z,77.96
2018-12-19T23:07:20.725Z,78.13
2018-12-19T23:09:48.401Z,77.89
2018-12-19T23:12:15.994Z,77.67
2018-12-19T23:14:43.529Z,78.02
2018-12-19T23:17:16.731Z,78.21
2018-12-19T23:19:44.436Z,78.09
2018-12-19T23:22:11.974Z,78.35
2018-12-19T23:24:39.552Z,78.09
2018-12-19T23:27:07.105Z,78.36
2018-12-19T23:29:34.565Z,78.16
2018-12-19T23:32:02.164Z,78.00
2018-12-19T23:34:29.648Z,77.92
2018-12-19T23:36:57.412Z,77.98
2018-12-19T23:39:25.120Z,77.80
2018-12-19T23:41:52.678Z,77.85
2018-12-19T23:44:22.587Z,77.74
2018-12-19T23:46:50.261Z,77.63
2018-12-19T23:49:17.946Z,78.02
2018-12-19T23:51:45.501Z,77.85
2018-12-19T23:54:13.071Z,78.24
2018-12-19T23:56:41.591Z,77.92
2018-12-19T23:59:09.209Z,77.72
